Time;durP1;ratioP1;P1;durP2;ratioP2;P2;SDS_P1;SDS_P2;PMS_P1;PMS_P2;Temp;Humidity;BMP_temperature;BMP_pressure;BME280_temperature;BME280_humidity;BME280_pressure;Samples;Min_cycle;Max_cycle;Signal;HPM_P1;HPM_P2
2023/06/22 00:01:21;;;;;;;1.37;1.15;;;;;;;24.92;65.70;100081.84;4468338;32;34072;-84
2023/06/22 00:03:49;;;;;;;0.30;0.30;;;;;;;25.44;63.19;100103.69;4462677;32;31856;-84
2023/06/22 00:06:16;;;;;;;0.93;0.68;;;;;;;25.26;63.86;100115.34;4476121;32;33495;-84
2023/06/22 00:08:44;;;;;;;3.05;1.65;;;;;;;25.24;64.30;100114.66;4468859;32;32546;-84
2023/06/22 00:11:12;;;;;;;1.10;1.00;;;;;;;25.07;64.93;100114.59;4473657;32;33632;-84
2023/06/22 00:13:39;;;;;;;1.90;0.90;;;;;;;25.02;65.52;100123.19;4477424;32;33762;-84
2023/06/22 00:16:07;;;;;;;1.17;0.75;;;;;;;25.14;65.19;100123.84;4463150;32;32466;-84
2023/06/22 00:18:39;;;;;;;1.12;0.60;;;;;;;25.22;64.95;100113.97;4479023;32;34062;-85
2023/06/22 00:21:07;;;;;;;2.03;1.23;;;;;;;24.98;65.66;100102.88;4475365;32;33985;-84
2023/06/22 00:23:36;;;;;;;1.02;1.00;;;;;;;24.69;65.93;100098.50;4476047;32;33543;-84
2023/06/22 00:26:04;;;;;;;3.00;1.55;;;;;;;25.29;63.60;100103.38;4472822;32;33891;-83
2023/06/22 00:28:31;;;;;;;6.32;1.95;;;;;;;25.33;63.66;100103.91;4462174;32;32644;-83
2023/06/22 00:31:01;;;;;;;0.37;0.37;;;;;;;25.00;65.13;100106.25;4477664;32;33755;-82
2023/06/22 00:33:29;;;;;;;0.90;0.68;;;;;;;25.01;65.29;100105.25;4472073;32;34031;-82
2023/06/22 00:35:57;;;;;;;0.60;0.60;;;;;;;24.99;65.25;100108.13;4477391;32;34000;-82
2023/06/22 00:38:24;;;;;;;2.78;0.95;;;;;;;25.20;64.50;100115.94;4474585;32;34087;-82
2023/06/22 00:40:52;;;;;;;1.15;1.05;;;;;;;25.53;63.21;100113.56;4475322;32;33759;-82
2023/06/22 00:43:20;;;;;;;1.52;1.42;;;;;;;25.05;64.79;100114.75;4465875;32;32259;-82
2023/06/22 00:45:48;;;;;;;2.03;1.85;;;;;;;24.81;65.94;100103.69;4466587;32;32243;-82
2023/06/22 00:48:17;;;;;;;0.90;0.82;;;;;;;24.93;65.53;100119.53;4464582;32;32362;-82
2023/06/22 00:50:50;;;;;;;0.68;0.68;;;;;;;25.34;63.53;100116.44;4475019;32;34451;-85
2023/06/22 00:53:18;;;;;;;0.70;0.52;;;;;;;24.96;65.08;100112.97;4473545;32;32822;-84
2023/06/22 00:55:46;;;;;;;0.65;0.60;;;;;;;24.91;65.73;100107.16;4478936;32;33908;-85
2023/06/22 00:58:14;;;;;;;2.08;1.73;;;;;;;24.90;65.71;100113.56;4477677;32;34431;-82
2023/06/22 01:00:42;;;;;;;1.08;0.98;;;;;;;24.98;64.91;100116.38;4473658;32;34920;-82
2023/06/22 01:03:10;;;;;;;0.55;0.55;;;;;;;24.77;65.51;100103.97;4478957;32;33297;-82
2023/06/22 01:05:39;;;;;;;2.45;2.25;;;;;;;24.89;64.91;100112.72;4463108;32;33610;-82
2023/06/22 01:08:23;;;;;;;0.52;0.47;;;;;;;24.94;64.75;100110.41;4460871;32;33310;-82
2023/06/22 01:11:13;;;;;;;1.27;1.10;;;;;;;25.11;63.96;100118.72;4465727;32;33762;-82
2023/06/22 01:13:46;;;;;;;1.35;0.75;;;;;;;24.85;64.55;100105.94;4474431;32;34317;-83
2023/06/22 01:16:21;;;;;;;0.75;0.70;;;;;;;24.51;65.22;100103.00;4476157;32;33112;-84
2023/06/22 01:18:51;;;;;;;4.72;2.35;;;;;;;24.48;65.17;100097.87;4483122;32;33937;-84
2023/06/22 01:21:21;;;;;;;0.37;0.35;;;;;;;24.56;65.04;100095.28;4478949;32;34583;-85
2023/06/22 01:24:09;;;;;;;0.90;0.85;;;;;;;24.54;64.86;100097.28;4461372;32;32697;-84
2023/06/22 01:26:42;;;;;;;3.92;1.42;;;;;;;24.47;65.00;100102.44;4453596;32;34515;-85
2023/06/22 01:29:14;;;;;;;0.62;0.62;;;;;;;24.46;65.26;100094.50;4464169;32;34398;-84
2023/06/22 01:31:44;;;;;;;3.40;1.98;;;;;;;24.35;65.60;100087.38;4474591;32;33363;-84
2023/06/22 01:34:12;;;;;;;0.47;0.25;;;;;;;24.50;64.73;100090.50;4463116;32;34030;-83
2023/06/22 01:36:40;;;;;;;0.45;0.45;;;;;;;24.85;63.07;100091.56;4469289;32;33229;-82
2023/06/22 01:39:08;;;;;;;3.28;2.00;;;;;;;24.87;62.69;100084.16;4473237;32;33518;-83
2023/06/22 01:41:37;;;;;;;0.82;0.82;;;;;;;24.68;63.30;100083.25;4465378;32;33725;-84
2023/06/22 01:44:07;;;;;;;0.68;0.68;;;;;;;24.49;63.97;100088.78;4476095;32;31822;-84
2023/06/22 01:46:36;;;;;;;3.83;1.45;;;;;;;24.35;64.84;100084.69;4460816;32;34987;-84
2023/06/22 01:49:07;;;;;;;1.27;1.12;;;;;;;24.32;65.13;100082.28;4478182;32;34433;-84
2023/06/22 01:51:36;;;;;;;1.65;0.75;;;;;;;24.36;64.98;100088.25;4464100;32;34042;-84
2023/06/22 01:54:06;;;;;;;3.30;0.82;;;;;;;24.30;65.41;100083.44;4460139;32;32919;-84
2023/06/22 01:56:34;;;;;;;7.60;2.08;;;;;;;24.32;65.24;100094.94;4458562;32;33042;-84
2023/06/22 01:59:12;;;;;;;0.50;0.50;;;;;;;24.23;65.30;100093.97;4463110;32;33039;-83
2023/06/22 02:01:44;;;;;;;1.17;1.08;;;;;;;24.20;65.55;100097.81;4471601;32;34150;-84
2023/06/22 02:04:21;;;;;;;2.00;1.25;;;;;;;24.20;65.60;100094.25;4463632;32;31798;-83
2023/06/22 02:06:51;;;;;;;2.42;2.25;;;;;;;24.23;65.69;100092.13;4453629;32;32585;-84
2023/06/22 02:09:20;;;;;;;0.65;0.65;;;;;;;24.19;65.97;100097.97;4474245;32;34731;-84
2023/06/22 02:11:53;;;;;;;0.50;0.50;;;;;;;24.16;65.95;100090.16;4475378;32;33679;-83
2023/06/22 02:14:22;;;;;;;0.40;0.40;;;;;;;24.17;66.03;100095.41;4473438;32;32865;-83
2023/06/22 02:16:51;;;;;;;0.85;0.43;;;;;;;24.18;66.06;100090.88;4474511;32;34605;-83
2023/06/22 02:19:23;;;;;;;1.00;0.75;;;;;;;24.55;64.12;100099.00;4464207;32;32613;-83
2023/06/22 02:21:52;;;;;;;1.42;1.02;;;;;;;24.49;64.40;100102.28;4474186;32;33721;-82
2023/06/22 02:24:23;;;;;;;2.67;0.65;;;;;;;24.24;65.40;100101.91;4462919;32;32857;-82
2023/06/22 02:26:50;;;;;;;1.10;0.80;;;;;;;24.17;65.79;100111.59;4476140;32;33966;-82
2023/06/22 02:29:18;;;;;;;2.08;1.58;;;;;;;24.11;66.15;100105.94;4472627;32;34008;-82
2023/06/22 02:31:46;;;;;;;0.82;0.82;;;;;;;24.15;65.62;100113.59;4462596;32;32354;-82
2023/06/22 02:34:18;;;;;;;1.30;1.10;;;;;;;24.12;64.93;100119.28;4475970;32;33327;-82
2023/06/22 02:36:50;;;;;;;0.60;0.60;;;;;;;23.99;65.22;100125.00;4475921;32;34103;-82
2023/06/22 02:39:23;;;;;;;3.78;1.15;;;;;;;24.01;65.24;100122.13;4464639;32;34407;-82
2023/06/22 02:41:54;;;;;;;0.62;0.62;;;;;;;24.05;64.82;100123.56;4472151;32;34175;-82
2023/06/22 02:44:22;;;;;;;0.73;0.73;;;;;;;24.07;64.65;100131.50;4463778;32;33289;-82
2023/06/22 02:46:50;;;;;;;0.85;0.85;;;;;;;24.08;64.43;100131.38;4472478;32;34681;-84
2023/06/22 02:49:18;;;;;;;1.25;0.90;;;;;;;23.98;64.79;100138.63;4449993;32;33641;-84
2023/06/22 02:51:46;;;;;;;4.95;1.40;;;;;;;23.87;65.15;100134.22;4474477;32;32624;-83
2023/06/22 02:54:14;;;;;;;0.57;0.57;;;;;;;23.86;65.48;100132.53;4463208;32;32886;-83
2023/06/22 02:56:43;;;;;;;0.77;0.52;;;;;;;23.89;65.50;100134.97;4463276;32;33250;-83
2023/06/22 02:59:12;;;;;;;0.45;0.45;;;;;;;23.89;65.46;100143.03;4448622;32;33740;-84
2023/06/22 03:01:42;;;;;;;3.05;1.58;;;;;;;23.93;65.35;100130.97;4475963;32;33393;-83
2023/06/22 03:04:11;;;;;;;0.73;0.73;;;;;;;23.89;65.75;100128.72;4466686;32;33270;-85
2023/06/22 03:06:40;;;;;;;1.25;0.77;;;;;;;23.90;65.43;100125.84;4481419;32;33560;-85
2023/06/22 03:09:08;;;;;;;1.17;0.85;;;;;;;24.00;65.21;100117.75;4481490;32;34085;-84
2023/06/22 03:11:36;;;;;;;4.93;1.17;;;;;;;23.87;65.43;100109.97;4450388;32;32416;-85
2023/06/22 03:14:04;;;;;;;3.12;1.23;;;;;;;23.93;65.01;100122.88;4470797;32;33324;-84
2023/06/22 03:16:32;;;;;;;17.73;1.08;;;;;;;23.94;65.05;100126.44;4462124;32;33719;-84
2023/06/22 03:19:01;;;;;;;0.40;0.40;;;;;;;23.96;64.69;100122.56;4465975;32;33876;-84
2023/06/22 03:21:29;;;;;;;12.48;1.48;;;;;;;24.06;64.41;100121.69;4475164;32;34468;-83
2023/06/22 03:24:00;;;;;;;2.20;1.40;;;;;;;23.96;64.98;100132.50;4472420;32;32754;-82
2023/06/22 03:26:28;;;;;;;4.55;1.55;;;;;;;24.03;64.84;100125.56;4475871;32;33921;-82
2023/06/22 03:28:57;;;;;;;1.05;0.95;;;;;;;24.20;63.90;100122.09;4464704;32;34003;-82
2023/06/22 03:31:24;;;;;;;9.50;1.25;;;;;;;24.02;64.43;100118.44;4473528;32;34724;-83
2023/06/22 03:33:52;;;;;;;0.22;0.22;;;;;;;24.05;64.83;100110.06;4469201;32;31416;-82
2023/06/22 03:36:24;;;;;;;1.45;0.80;;;;;;;24.07;64.94;100109.91;4473909;32;34057;-82
2023/06/22 03:38:52;;;;;;;1.15;0.85;;;;;;;24.11;64.49;100117.56;4475135;32;33236;-82
2023/06/22 03:41:20;;;;;;;0.30;0.30;;;;;;;24.08;64.87;100115.19;4452431;32;32402;-82
2023/06/22 03:43:48;;;;;;;1.10;1.00;;;;;;;24.02;64.54;100123.84;4465303;32;33126;-83
2023/06/22 03:46:16;;;;;;;0.30;0.30;;;;;;;24.34;63.54;100123.47;4479596;32;34607;-83
2023/06/22 03:48:43;;;;;;;1.55;1.30;;;;;;;24.14;64.30;100121.84;4473705;32;33574;-82
2023/06/22 03:51:11;;;;;;;1.17;0.80;;;;;;;24.07;65.03;100116.19;4464056;32;33635;-82
2023/06/22 03:53:38;;;;;;;2.30;0.95;;;;;;;24.14;64.97;100119.97;4479882;32;34236;-82
2023/06/22 03:56:06;;;;;;;4.78;1.48;;;;;;;24.11;65.31;100112.16;4464856;32;34338;-83
2023/06/22 03:58:35;;;;;;;1.20;1.12;;;;;;;24.11;65.23;100112.16;4482943;32;33329;-83
2023/06/22 04:01:03;;;;;;;1.55;1.17;;;;;;;24.17;64.86;100111.59;4481842;32;33731;-83
2023/06/22 04:03:30;;;;;;;1.27;0.73;;;;;;;24.10;65.38;100113.19;4481084;32;33924;-83
2023/06/22 04:05:58;;;;;;;1.20;1.08;;;;;;;24.24;65.25;100123.50;4462672;32;32260;-82
2023/06/22 04:08:26;;;;;;;0.90;0.90;;;;;;;24.57;63.83;100117.72;4463596;32;33121;-82
2023/06/22 04:10:53;;;;;;;2.33;1.05;;;;;;;24.42;63.94;100114.66;4471438;32;33518;-83
2023/06/22 04:13:21;;;;;;;0.88;0.73;;;;;;;24.39;63.95;100115.81;4463801;32;35418;-82
2023/06/22 04:15:49;;;;;;;1.30;0.90;;;;;;;24.70;62.82;100118.25;4451408;32;32940;-82
2023/06/22 04:18:16;;;;;;;1.75;0.93;;;;;;;24.57;63.34;100117.72;4462307;32;33994;-82
2023/06/22 04:20:46;;;;;;;2.40;0.85;;;;;;;24.49;64.13;100121.16;4461872;32;33517;-82
2023/06/22 04:23:14;;;;;;;1.05;0.95;;;;;;;24.50;64.31;100117.50;4475801;32;32965;-85
2023/06/22 04:25:42;;;;;;;18.65;1.58;;;;;;;24.68;63.69;100115.66;4464520;32;32461;-84
2023/06/22 04:28:12;;;;;;;1.00;1.00;;;;;;;24.73;63.36;100118.78;4464356;32;32640;-84
2023/06/22 04:30:46;;;;;;;1.20;1.10;;;;;;;24.61;63.43;100117.28;4478741;32;34427;-83
2023/06/22 04:33:15;;;;;;;2.40;2.03;;;;;;;24.76;62.94;100118.47;4463968;32;31817;-83
2023/06/22 04:35:44;;;;;;;0.37;0.25;;;;;;;24.95;62.51;100116.66;4479182;32;33705;-86
2023/06/22 04:38:13;;;;;;;0.85;0.85;;;;;;;24.90;62.48;100121.69;4485452;31;34719;-86
2023/06/22 04:40:41;;;;;;;0.70;0.70;;;;;;;25.26;60.97;100128.03;4463221;32;32892;-85
2023/06/22 04:43:09;;;;;;;1.80;1.55;;;;;;;25.55;59.73;100125.09;4464946;32;33732;-85
2023/06/22 04:45:40;;;;;;;0.75;0.47;;;;;;;25.58;59.56;100140.97;4467028;32;32202;-86
2023/06/22 04:48:15;;;;;;;0.70;0.40;;;;;;;25.37;60.61;100144.00;4482247;32;33028;-83
2023/06/22 04:50:44;;;;;;;1.48;1.20;;;;;;;25.36;61.25;100146.88;4468182;32;33679;-83
2023/06/22 04:53:12;;;;;;;0.70;0.70;;;;;;;25.78;58.61;100142.56;4451890;32;33101;-83
2023/06/22 04:55:41;;;;;;;1.02;0.95;;;;;;;25.46;60.05;100140.38;4466041;32;32458;-83
2023/06/22 04:58:09;;;;;;;0.50;0.50;;;;;;;25.51;60.07;100156.97;4474245;32;34447;-83
2023/06/22 05:00:36;;;;;;;2.20;0.77;;;;;;;25.18;60.95;100155.81;4464660;32;33761;-83
2023/06/22 05:03:06;;;;;;;0.77;0.77;;;;;;;25.21;60.45;100154.63;4475525;32;33726;-83
2023/06/22 05:05:47;;;;;;;0.55;0.55;;;;;;;25.30;59.98;100153.72;4460262;32;32790;-83
2023/06/22 05:08:15;;;;;;;0.28;0.28;;;;;;;25.42;60.01;100151.66;4460727;32;33999;-83
2023/06/22 05:10:43;;;;;;;1.17;0.95;;;;;;;25.27;60.10;100157.59;4480207;32;33896;-83
2023/06/22 05:13:30;;;;;;;3.90;1.98;;;;;;;25.53;59.74;100162.22;4480411;32;34116;-83
2023/06/22 05:16:01;;;;;;;1.10;1.00;;;;;;;25.42;59.90;100174.12;4467175;32;33421;-83
2023/06/22 05:18:30;;;;;;;0.17;0.17;;;;;;;25.47;59.49;100171.81;4460167;32;34484;-83
2023/06/22 05:20:59;;;;;;;1.10;1.10;;;;;;;25.58;59.42;100178.84;4469207;32;34082;-83
2023/06/22 05:23:27;;;;;;;1.10;0.65;;;;;;;25.68;59.29;100184.16;4466289;32;32100;-84
2023/06/22 05:25:57;;;;;;;1.05;0.47;;;;;;;25.90;58.30;100177.47;4472413;32;33871;-83
2023/06/22 05:28:39;;;;;;;0.80;0.80;;;;;;;26.63;55.55;100169.84;4520348;31;259829;-84
2023/06/22 05:31:07;;;;;;;1.00;0.82;;;;;;;26.63;55.55;100169.84;4499658;31;33901;-85
2023/06/22 05:33:35;;;;;;;0.20;0.20;;;;;;;25.92;57.67;100170.03;4499352;31;33874;-84
2023/06/22 05:36:03;;;;;;;3.78;1.00;;;;;;;26.03;57.96;100183.34;4472288;31;35048;-84
2023/06/22 05:38:31;;;;;;;1.33;1.17;;;;;;;26.33;57.44;100183.88;4495061;31;32063;-85
2023/06/22 05:40:58;;;;;;;0.60;0.60;;;;;;;26.46;57.07;100187.03;4501452;31;34048;-84
2023/06/22 05:43:26;;;;;;;1.67;1.05;;;;;;;26.58;56.16;100190.31;4482702;31;33407;-85
2023/06/22 05:45:53;;;;;;;7.90;2.40;;;;;;;26.63;55.10;100190.69;4484661;31;32541;-85
2023/06/22 05:48:21;;;;;;;2.60;1.95;;;;;;;26.88;54.83;100178.97;4500599;31;33848;-86
2023/06/22 05:50:49;;;;;;;2.03;1.30;;;;;;;27.11;54.67;100184.69;4501939;31;33287;-86
2023/06/22 05:53:16;;;;;;;2.55;0.98;;;;;;;27.43;54.94;100183.91;4506930;31;34664;-86
2023/06/22 05:55:44;;;;;;;1.37;1.27;;;;;;;27.24;54.35;100190.47;4474075;31;33669;-85
2023/06/22 05:58:13;;;;;;;1.87;0.93;;;;;;;27.76;52.38;100190.25;4505454;31;33863;-85
2023/06/22 06:00:41;;;;;;;0.50;0.50;;;;;;;27.79;53.59;100184.50;4490914;31;33359;-86
2023/06/22 06:03:10;;;;;;;1.75;1.58;;;;;;;27.89;53.05;100191.62;4487919;31;33853;-86
2023/06/22 06:05:40;;;;;;;0.77;0.73;;;;;;;27.90;53.67;100191.44;4493194;31;34000;-86
2023/06/22 06:08:08;;;;;;;3.97;0.70;;;;;;;27.77;53.34;100189.25;4484122;31;34379;-86
2023/06/22 06:10:36;;;;;;;1.75;1.27;;;;;;;27.91;52.52;100179.56;4472125;31;34009;-86
2023/06/22 06:13:04;;;;;;;0.95;0.82;;;;;;;28.01;53.19;100188.41;4488371;31;32788;-86
2023/06/22 06:15:32;;;;;;;0.88;0.88;;;;;;;28.42;52.36;100180.22;4502620;31;34079;-85
2023/06/22 06:18:00;;;;;;;5.28;2.35;;;;;;;28.64;51.02;100177.81;4479752;31;32749;-86
2023/06/22 06:20:27;;;;;;;1.73;0.85;;;;;;;28.63;52.34;100185.13;4502059;31;33403;-86
2023/06/22 06:22:57;;;;;;;4.05;1.45;;;;;;;28.39;52.39;100179.72;4480680;31;33114;-86
2023/06/22 06:25:25;;;;;;;0.82;0.82;;;;;;;28.74;49.88;100179.28;4477235;32;32997;-86
2023/06/22 06:27:54;;;;;;;1.90;0.93;;;;;;;28.95;49.22;100177.88;4504368;31;34306;-86
2023/06/22 06:30:22;;;;;;;0.55;0.52;;;;;;;28.95;49.88;100180.59;4486470;31;32560;-86
2023/06/22 06:32:50;;;;;;;0.50;0.50;;;;;;;28.87;51.20;100175.19;4484833;31;33755;-86
2023/06/22 06:35:18;;;;;;;1.58;1.37;;;;;;;28.54;51.30;100178.84;4496374;31;33319;-86
2023/06/22 06:37:47;;;;;;;0.47;0.47;;;;;;;28.25;51.53;100173.13;4487001;32;32559;-85
2023/06/22 06:40:17;;;;;;;3.40;1.55;;;;;;;28.73;50.41;100165.87;4487590;31;34006;-86
2023/06/22 06:42:48;;;;;;;0.40;0.40;;;;;;;29.00;49.39;100167.31;4465417;31;33966;-86
2023/06/22 06:45:17;;;;;;;3.37;1.90;;;;;;;29.30;49.08;100163.75;4483607;31;33922;-86
2023/06/22 06:47:45;;;;;;;0.82;0.82;;;;;;;29.55;48.11;100164.47;4478974;31;33002;-86
2023/06/22 06:50:13;;;;;;;0.90;0.65;;;;;;;29.64;48.92;100154.38;4463042;31;32646;-86
2023/06/22 06:52:41;;;;;;;1.30;1.08;;;;;;;29.84;46.45;100158.28;4472232;32;33726;-86
2023/06/22 06:55:12;;;;;;;2.08;1.15;;;;;;;29.73;47.66;100161.44;4470369;31;34071;-85
2023/06/22 06:57:41;;;;;;;0.32;0.32;;;;;;;29.80;46.87;100161.56;4475794;32;33530;-86
2023/06/22 07:00:13;;;;;;;0.70;0.70;;;;;;;29.69;44.54;100157.41;4485304;31;32546;-86
2023/06/22 07:02:41;;;;;;;;;;;;;;;30.09;44.19;100152.63;4475145;31;33552;-86
2023/06/22 07:05:10;;;;;;;1.35;1.17;;;;;;;30.01;45.20;100166.31;4465387;31;32638;-86
2023/06/22 07:07:37;;;;;;;8.40;0.73;;;;;;;30.24;44.20;100150.81;4487034;31;33361;-89
2023/06/22 07:10:06;;;;;;;0.70;0.70;;;;;;;30.53;45.01;100143.69;4467030;31;33863;-90
2023/06/22 07:12:34;;;;;;;0.52;0.52;;;;;;;30.78;44.67;100142.37;4469796;31;34397;-89
2023/06/22 07:15:03;;;;;;;1.30;1.20;;;;;;;30.97;41.61;100145.56;4454321;31;34126;-90
2023/06/22 07:17:32;;;;;;;0.75;0.70;;;;;;;30.53;42.99;100141.81;4482173;31;33844;-88
2023/06/22 07:20:10;;;;;;;1.53;1.17;;;;;;;30.82;44.62;100148.31;4482722;31;33789;-88
2023/06/22 07:23:25;;;;;;;0.73;0.73;;;;;;;30.84;43.17;100148.94;4468125;31;34459;-87
2023/06/22 07:25:55;;;;;;;5.43;2.63;;;;;;;30.96;42.11;100143.88;4491873;31;34386;-87
2023/06/22 07:28:24;;;;;;;0.80;0.80;;;;;;;31.12;42.03;100138.19;4459064;31;32860;-86
2023/06/22 07:30:52;;;;;;;1.48;0.88;;;;;;;30.97;43.40;100140.09;4478820;31;33157;-86
2023/06/22 07:33:19;;;;;;;0.68;0.68;;;;;;;31.15;41.98;100142.41;4457765;31;33570;-86
2023/06/22 07:35:48;;;;;;;2.87;1.73;;;;;;;31.52;41.05;100138.63;4479664;31;33575;-86
2023/06/22 07:38:15;;;;;;;1.23;0.65;;;;;;;31.35;43.27;100138.03;4465576;31;32418;-85
2023/06/22 07:40:44;;;;;;;1.60;0.88;;;;;;;31.52;40.88;100146.81;4478787;31;33379;-85
2023/06/22 07:43:12;;;;;;;10.32;1.87;;;;;;;31.30;41.58;100141.34;4478487;31;33881;-86
2023/06/22 07:45:40;;;;;;;2.05;1.62;;;;;;;31.56;40.50;100135.31;4479799;31;33204;-86
2023/06/22 07:48:08;;;;;;;4.03;1.83;;;;;;;31.17;41.73;100135.72;4451698;31;32431;-88
2023/06/22 07:50:36;;;;;;;1.27;1.17;;;;;;;31.39;41.85;100138.50;4475640;31;32344;-85
2023/06/22 07:53:04;;;;;;;6.10;1.30;;;;;;;31.45;41.30;100137.72;4477380;31;33633;-86
2023/06/22 07:55:32;;;;;;;1.35;1.25;;;;;;;31.47;41.33;100131.03;4482285;31;33986;-86
2023/06/22 07:58:00;;;;;;;0.90;0.90;;;;;;;31.63;40.46;100138.13;4478677;31;33468;-85
2023/06/22 08:00:27;;;;;;;1.05;0.95;;;;;;;31.84;40.18;100132.66;4481241;31;33379;-86
2023/06/22 08:02:56;;;;;;;1.83;1.73;;;;;;;31.72;39.87;100131.50;4476859;31;33987;-86
2023/06/22 08:05:24;;;;;;;5.82;1.90;;;;;;;31.55;40.29;100130.06;4482048;31;33745;-85
2023/06/22 08:07:51;;;;;;;1.37;1.33;;;;;;;31.77;39.35;100120.81;4485667;31;34058;-87
2023/06/22 08:10:19;;;;;;;1.98;1.87;;;;;;;32.03;38.90;100114.75;4473345;31;33145;-86
2023/06/22 08:12:47;;;;;;;3.12;1.87;;;;;;;32.20;38.45;100117.19;4471525;31;32388;-86
2023/06/22 08:15:14;;;;;;;1.00;1.00;;;;;;;32.39;38.44;100118.37;4483630;31;33616;-86
2023/06/22 08:17:48;;;;;;;1.55;1.45;;;;;;;32.53;38.83;100126.47;4480124;31;33367;-86
2023/06/22 08:20:16;;;;;;;2.33;1.23;;;;;;;33.02;38.35;100124.59;4473838;31;33052;-87
2023/06/22 08:22:43;;;;;;;4.22;1.23;;;;;;;32.87;37.37;100124.72;4496524;31;34653;-86
2023/06/22 08:25:12;;;;;;;2.58;1.25;;;;;;;32.82;37.47;100117.12;4480443;31;32756;-86
2023/06/22 08:27:44;;;;;;;6.82;2.17;;;;;;;32.94;37.39;100127.50;4473171;31;33679;-87
2023/06/22 08:30:13;;;;;;;3.30;1.70;;;;;;;32.76;38.64;100119.81;4473497;32;33340;-86
2023/06/22 08:32:43;;;;;;;1.40;1.30;;;;;;;32.43;39.43;100114.19;4461475;31;32451;-88
2023/06/22 08:35:11;;;;;;;6.12;1.73;;;;;;;32.62;38.02;100118.94;4474688;31;33594;-87
2023/06/22 08:37:52;;;;;;;2.90;2.33;;;;;;;32.52;38.52;100110.25;4475894;31;33033;-86
2023/06/22 08:40:20;;;;;;;2.05;1.83;;;;;;;33.01;38.44;100111.97;4477488;31;31777;-86
2023/06/22 08:42:48;;;;;;;2.22;1.30;;;;;;;32.97;37.76;100113.44;4469722;31;34938;-87
2023/06/22 08:45:16;;;;;;;3.28;1.83;;;;;;;32.74;38.74;100106.34;4470030;31;34851;-86
2023/06/22 08:47:44;;;;;;;4.68;3.30;;;;;;;33.10;38.54;100108.00;4462142;32;33295;-87
2023/06/22 08:50:12;;;;;;;4.53;2.42;;;;;;;33.47;38.84;100100.31;4471238;31;32469;-87
2023/06/22 08:52:41;;;;;;;1.08;1.05;;;;;;;33.71;38.48;100096.97;4474236;32;33425;-87
2023/06/22 08:55:10;;;;;;;1.67;1.20;;;;;;;33.64;38.02;100094.22;4478972;31;32631;-87
2023/06/22 08:57:39;;;;;;;1.48;1.37;;;;;;;33.60;38.11;100095.69;4466334;31;33657;-87
2023/06/22 09:00:16;;;;;;;2.75;2.00;;;;;;;33.67;37.88;100095.69;4478364;31;33771;-90
2023/06/22 09:02:46;;;;;;;2.92;1.77;;;;;;;33.68;36.94;100080.94;4460390;31;34529;-88
2023/06/22 09:17:09;;;;;;;1.95;1.85;;;;;;;33.94;35.98;100084.72;4461046;31;34666;-86
2023/06/22 09:19:38;;;;;;;2.35;2.15;;;;;;;33.60;37.30;100075.69;4473563;31;33909;-86
2023/06/22 09:22:08;;;;;;;1.35;1.02;;;;;;;33.56;36.75;100075.25;4455452;31;33844;-86
2023/06/22 09:24:36;;;;;;;2.65;1.85;;;;;;;33.95;37.39;100076.34;4468255;31;32747;-86
2023/06/22 09:27:04;;;;;;;2.45;1.70;;;;;;;34.00;38.08;100075.69;4464955;31;33578;-87
2023/06/22 09:29:33;;;;;;;2.33;2.12;;;;;;;33.90;37.74;100076.09;4448585;31;32634;-86
2023/06/22 09:32:01;;;;;;;0.93;0.93;;;;;;;34.07;36.40;100076.53;4477472;32;33698;-86
2023/06/22 09:34:31;;;;;;;1.70;1.60;;;;;;;33.98;36.71;100064.94;4456515;31;33426;-87
2023/06/22 09:37:00;;;;;;;3.42;2.53;;;;;;;34.47;36.95;100058.13;4459128;31;34675;-86
2023/06/22 09:39:28;;;;;;;4.25;1.73;;;;;;;34.25;36.53;100059.41;4450269;31;33525;-86
2023/06/22 09:41:59;;;;;;;8.32;2.90;;;;;;;34.07;37.20;100062.81;4470253;31;33445;-86
2023/06/22 09:44:26;;;;;;;3.95;2.08;;;;;;;34.03;37.31;100064.28;4483367;31;33411;-87
2023/06/22 09:46:54;;;;;;;5.40;1.58;;;;;;;34.24;37.32;100057.72;4488007;31;33526;-86
2023/06/22 09:49:22;;;;;;;1.55;1.45;;;;;;;34.17;36.11;100063.22;4485162;31;34488;-86
2023/06/22 09:52:08;;;;;;;2.00;1.87;;;;;;;34.81;38.09;100067.03;4471834;31;34451;-86
2023/06/22 09:54:36;;;;;;;5.45;2.78;;;;;;;35.07;36.91;100055.91;4465624;31;33171;-86
2023/06/22 09:57:03;;;;;;;3.45;2.50;;;;;;;34.92;35.79;100055.34;4487996;31;33736;-86
2023/06/22 09:59:31;;;;;;;7.28;2.17;;;;;;;34.98;36.65;100059.97;4483228;31;33555;-86
2023/06/22 10:01:59;;;;;;;1.70;1.60;;;;;;;34.95;35.40;100054.94;4454938;32;32766;-86
2023/06/22 10:04:27;;;;;;;0.95;0.95;;;;;;;34.91;35.88;100053.69;4467157;31;31713;-86
2023/06/22 10:06:55;;;;;;;1.15;1.12;;;;;;;34.64;36.09;100058.44;4461996;31;32417;-86
2023/06/22 10:09:23;;;;;;;1.58;1.48;;;;;;;34.93;36.70;100050.69;4473232;31;34072;-86
2023/06/22 10:11:51;;;;;;;2.22;1.58;;;;;;;35.19;36.20;100047.84;4478200;31;34539;-86
2023/06/22 10:14:18;;;;;;;3.17;2.80;;;;;;;35.25;35.47;100052.44;4477512;31;31927;-86
2023/06/22 10:16:46;;;;;;;4.90;2.10;;;;;;;35.14;35.03;100058.63;4473456;31;33765;-86
2023/06/22 10:19:14;;;;;;;2.50;2.05;;;;;;;35.40;34.59;100052.94;4469237;31;33302;-86
2023/06/22 10:21:41;;;;;;;4.87;1.65;;;;;;;35.31;34.18;100046.03;4467955;31;35629;-86
2023/06/22 10:24:09;;;;;;;4.37;2.20;;;;;;;35.59;33.78;100042.91;4490625;31;34394;-86
2023/06/22 10:26:37;;;;;;;1.75;1.17;;;;;;;35.59;35.27;100042.06;4473580;31;34164;-86
2023/06/22 10:29:05;;;;;;;1.65;1.55;;;;;;;34.72;36.03;100055.47;4463042;31;33853;-86
2023/06/22 10:31:43;;;;;;;2.62;1.42;;;;;;;35.12;36.22;100047.03;4485523;31;33598;-86
2023/06/22 10:34:10;;;;;;;16.92;1.62;;;;;;;35.31;35.52;100043.28;4482125;31;32321;-89
2023/06/22 10:36:42;;;;;;;2.35;1.73;;;;;;;35.21;35.24;100042.12;4474292;31;33375;-88
2023/06/22 10:39:31;;;;;;;1.62;1.52;;;;;;;35.67;34.87;100035.44;4467896;31;32442;-88
2023/06/22 10:42:10;;;;;;;7.90;1.95;;;;;;;35.92;32.78;100033.50;4452297;31;31738;-89
2023/06/22 10:44:49;;;;;;;2.45;1.20;;;;;;;35.80;33.16;100040.78;4459012;31;32281;-89
2023/06/22 10:47:20;;;;;;;2.17;2.05;;;;;;;35.77;34.54;100035.78;4456110;32;34315;-88
2023/06/22 10:49:50;;;;;;;1.23;1.23;;;;;;;35.76;34.62;100040.44;4459508;31;33240;-88
2023/06/22 10:52:29;;;;;;;2.05;1.83;;;;;;;35.32;34.35;100034.03;4471873;32;33052;-87
2023/06/22 10:54:58;;;;;;;2.15;1.85;;;;;;;34.96;35.60;100028.34;4495472;31;33074;-86
2023/06/22 10:57:25;;;;;;;2.45;2.25;;;;;;;34.67;35.91;100036.09;4464771;31;33814;-86
2023/06/22 10:59:53;;;;;;;2.30;2.10;;;;;;;35.24;35.00;100036.19;4467091;31;33520;-86
2023/06/22 11:02:21;;;;;;;3.58;2.03;;;;;;;35.75;33.32;100036.00;4489824;31;33971;-87
2023/06/22 11:04:50;;;;;;;2.08;1.92;;;;;;;35.53;33.45;100030.06;4471375;32;33060;-86
2023/06/22 11:07:17;;;;;;;2.58;2.03;;;;;;;35.20;34.97;100041.28;4485170;31;34305;-86
2023/06/22 11:09:46;;;;;;;2.28;1.50;;;;;;;35.79;33.78;100028.97;4475882;31;34158;-86
2023/06/22 11:12:14;;;;;;;4.70;2.70;;;;;;;35.63;33.98;100029.56;4467649;31;32315;-89
2023/06/22 11:14:42;;;;;;;3.75;1.87;;;;;;;35.52;33.76;100031.16;4462443;31;34320;-88
2023/06/22 11:17:10;;;;;;;1.35;1.25;;;;;;;35.37;33.78;100020.47;4470498;31;34661;-88
2023/06/22 11:19:40;;;;;;;2.45;1.30;;;;;;;35.15;34.04;100027.37;4463127;31;34504;-88
2023/06/22 11:22:08;;;;;;;1.73;1.62;;;;;;;34.92;35.88;100022.44;4461510;31;33200;-89
2023/06/22 11:24:36;;;;;;;1.62;1.27;;;;;;;34.96;37.12;100017.38;4464635;32;35369;-88
2023/06/22 11:27:04;;;;;;;2.25;2.12;;;;;;;34.66;35.39;100023.44;4473082;31;33907;-89
2023/06/22 11:29:33;;;;;;;2.22;1.35;;;;;;;35.08;34.36;100015.59;4460861;31;33683;-88
2023/06/22 11:32:21;;;;;;;1.52;1.40;;;;;;;35.19;34.78;100012.16;4473670;31;32631;-89
2023/06/22 11:34:52;;;;;;;1.65;1.55;;;;;;;35.41;34.62;100009.84;4469882;31;33083;-89
2023/06/22 11:37:22;;;;;;;2.40;1.87;;;;;;;35.74;34.13;100004.09;4459324;31;33501;-89
2023/06/22 11:39:50;;;;;;;2.05;1.85;;;;;;;36.07;33.69;100012.00;4486278;31;33630;-88
2023/06/22 11:42:34;;;;;;;6.43;3.80;;;;;;;35.98;33.78;100012.53;4462698;31;32844;-88
2023/06/22 11:45:04;;;;;;;3.30;1.27;;;;;;;36.41;31.82;99998.72;4481259;31;33595;-88
2023/06/22 11:47:32;;;;;;;11.52;1.73;;;;;;;36.59;32.35;100006.97;4454545;31;34172;-89